KTPA Airport Information

Runway Information
Runway 10 Length 6999 ft width 150 ft Elevation 14 ft Threshold N/A Heading 92
Runway 28 Length 6999 ft Width 150 ft Elevation 26 ft Threshold N/A Heading 272
Runway 19R Length 11002 ft width 150 ft Elevation 21 ft Threshold N/A Heading 182
Runway 01L Length 11002 ft Width 150 ft Elevation 11 ft Threshold N/A Heading 2
Runway 19L Length 8300 ft width 150 ft Elevation 26 ft Threshold N/A Heading 182
Runway 01R Length 8300 ft Width 150 ft Elevation 18 ft Threshold N/A Heading 2
Airport Frequencies
Type A/D Name APP/DEP Frequency 118.15 MHZ
Type ATIS Name ATIS Frequency 126.45 MHZ
Type CLD Name CLNC DEL Frequency 133.6 MHZ
Type GND Name GND Frequency 121.7 MHZ
Type TWR Name TWR Frequency 119.5 MHZ
Type UNIC Name UNICOM Frequency 122.95 MHZ
Airport Navaids
Type NDB Name Cosme Frequency 368 KHZ
Airport Weather Information & NOTAM
ADDS - METARS form results

(1637 UTC 17 August 2022)
Data provider http://aviationweather.gov/metar/data/
 
METAR text: KTPA 171608Z 00000KT 10SM FEW012 SCT026CB SCT070 BKN280 29/26 A3000 RMK AO2 TSE1558 CB NE MOV E VCSH NE T02890256
Conditions at: KTPA (TAMPA , FL, US) observed 1608 UTC 17 August 2022
Temperature: 28.9°C (84°F)
Dewpoint: 25.6°C (78°F) [RH = 82%]
Pressure (altimeter): 30.00 inches Hg (1016.0 mb)
Winds: calm
Visibility: 10 or more miles (16+ km)
Ceiling: 28000 feet AGL
Clouds: few clouds at 1200 feet AGL
scattered clouds at 2600 feet AGL
scattered clouds at 7000 feet AGL
broken clouds at 28000 feet AGL
Weather: no significant weather observed at this time

METAR text: KTPA 171559Z 00000KT 10SM VCTS FEW012 SCT026CB SCT070 BKN280 28/26 A3000 RMK AO2 TSE58 CB NE MOV E VCSH NE T02830256
Conditions at: KTPA (TAMPA , FL, US) observed 1559 UTC 17 August 2022
Temperature: 28.3°C (83°F)
Dewpoint: 25.6°C (78°F) [RH = 85%]
Pressure (altimeter): 30.00 inches Hg (1016.0 mb)
Winds: calm
Visibility: 10 or more miles (16+ km)
Ceiling: 28000 feet AGL
Clouds: few clouds at 1200 feet AGL
scattered clouds at 2600 feet AGL
scattered clouds at 7000 feet AGL
broken clouds at 28000 feet AGL
Weather: VCTS  (thunderstorm in vicinity)

METAR text: KTPA 171553Z 14003KT 7SM TS FEW012 SCT023CB BKN070 BKN280 28/26 A3000 RMK AO2 RAB18E52 SLP158 OCNL LTGCG NE-E TS NE-E MOV E P0054 T02830256
Conditions at: KTPA (TAMPA , FL, US) observed 1553 UTC 17 August 2022
Temperature: 28.3°C (83°F)
Dewpoint: 25.6°C (78°F) [RH = 85%]
Pressure (altimeter): 30.00 inches Hg (1016.0 mb)
[Sea-level pressure: 1015.8 mb]
Winds: from the SE (140 degrees) at 3 MPH (3 knots; 1.5 m/s)
Visibility: 7 miles (11 km)
Ceiling: 7000 feet AGL
Clouds: few clouds at 1200 feet AGL
scattered clouds at 2300 feet AGL
broken clouds at 7000 feet AGL
broken clouds at 28000 feet AGL
Weather: TS  (thunderstorm)

METAR text: KTPA 171541Z 20004KT 6SM R19R/6000VP6000FT -TSRA FEW012 BKN023CB BKN070 BKN280 27/24 A2999 RMK AO2 LTG DSNT NE RAB18 OCNL LTGCG OHD TS OHD MOV E P0054 T02720239
Conditions at: KTPA (TAMPA , FL, US) observed 1541 UTC 17 August 2022
Temperature: 27.2°C (81°F)
Dewpoint: 23.9°C (75°F) [RH = 82%]
Pressure (altimeter): 29.99 inches Hg (1015.7 mb)
Winds: from the SSW (200 degrees) at 5 MPH (4 knots; 2.1 m/s)
Visibility: 6 miles (10 km)
Ceiling: 2300 feet AGL
Clouds: few clouds at 1200 feet AGL
broken clouds at 2300 feet AGL
broken clouds at 7000 feet AGL
broken clouds at 28000 feet AGL
Weather: -TSRA  (light rain associated with thunderstorm(s))

Forecast for: KTPA (TAMPA , FL, US)
Text: KTPA 171526Z 1715/1818 22007KT P6SM VCTS SCT030CB SCT230
Forecast period: 1500 to 1800 UTC 17 August 2022
Forecast type: FROM: standard forecast or significant change
Winds: from the SW (220 degrees) at 8 MPH (7 knots; 3.6 m/s)
Visibility: 6 or more miles (10+ km)
Ceiling: at least 12,000 feet AGL
Clouds: scattered clouds at 3000 feet AGL
scattered clouds at 23000 feet AGL
Weather: VCTS  (thunderstorm in vicinity)
Text: TEMPO 1715/1716 31010G15KT 2SM -TSRA BKN025CB
Forecast period: 1500 to 1600 UTC 17 August 2022
Forecast type: TEMPORARY: The following changes expected for less than half the time period
Winds: from the NW (310 degrees) at 12 MPH (10 knots; 5.1 m/s)
gusting to 17 MPH (15 knots; 7.7 m/s)
Visibility: 2.00 miles (3.22 km)
Ceiling: 2500 feet AGL
Clouds: broken clouds at 2500 feet AGL
Weather: -TSRA  (light rain associated with thunderstorm(s))
Text: FM171800 25007KT P6SM SCT035 SCT250
Forecast period: 1800 UTC 17 August 2022 to 0100 UTC 18 August 2022
Forecast type: FROM: standard forecast or significant change
Winds: from the WSW (250 degrees) at 8 MPH (7 knots; 3.6 m/s)
Visibility: 6 or more miles (10+ km)
Ceiling: at least 12,000 feet AGL
Clouds: scattered clouds at 3500 feet AGL
scattered clouds at 25000 feet AGL
Weather: no significant weather forecast for this period
Text: FM180100 28006KT P6SM SCT250
Forecast period: 0100 to 1200 UTC 18 August 2022
Forecast type: FROM: standard forecast or significant change
Winds: from the W (280 degrees) at 7 MPH (6 knots; 3.1 m/s)
Visibility: 6 or more miles (10+ km)
Ceiling: at least 12,000 feet AGL
Clouds: scattered clouds at 25000 feet AGL
Weather: no significant weather forecast for this period
Text: FM181200 VRB03KT P6SM FEW025 FEW160
Forecast period: 1200 to 1400 UTC 18 August 2022
Forecast type: FROM: standard forecast or significant change
Winds: variable direction winds at 3 MPH (3 knots; 1.5 m/s)
Visibility: 6 or more miles (10+ km)
Ceiling: at least 12,000 feet AGL
Clouds: few clouds at 2500 feet AGL
few clouds at 16000 feet AGL
Weather: no significant weather forecast for this period
Text: FM181400 26005KT P6SM FEW030 FEW140
Forecast period: 1400 to 1800 UTC 18 August 2022
Forecast type: FROM: standard forecast or significant change
Winds: from the W (260 degrees) at 6 MPH (5 knots; 2.6 m/s)
Visibility: 6 or more miles (10+ km)
Ceiling: at least 12,000 feet AGL
Clouds: few clouds at 3000 feet AGL
few clouds at 14000 feet AGL
Weather: no significant weather forecast for this period